Arches Natl Park, Utah
Current Conditions -  °F | °C
As of 3:53 PM on Thursday 23 Oct 2014 (Local Time) from KCNY Reporting Station
Clear Clear  
Wind Chill: 23°   Ceiling: Unl
Heat Index: 23°   Visibility: 10mi
Dew Point:   Wind: 6mph
Humidity: 25%   Direction: NA
Pressure: 30.13"   Gusts: NA
Location:  38.7°N, 109.75°W
Report Text: KCNY 232153Z AUTO VRB05KT 10SM CLR 23/02 A3013 RMK AO2 SLP167 T02280017
Loading
Personal Weather Stations






























Interactive Weather Map
Tropical Storm Tracking
New forecast layout! Learn more

10-Day Weather Forecast

Advertisements
Track Severe Weather on mobile